createdAt,value
2024-03-15T00:00:19.511Z,3.36
2024-03-15T00:02:50.377Z,3.41
2024-03-15T00:05:17.570Z,3.38
2024-03-15T00:07:47.198Z,3.42
2024-03-15T00:10:13.797Z,3.36
2024-03-15T00:12:40.288Z,3.47
2024-03-15T00:15:07.094Z,3.44
2024-03-15T00:17:33.669Z,3.31
2024-03-15T00:20:00.281Z,3.29
2024-03-15T00:22:26.891Z,3.28
2024-03-15T00:24:53.483Z,3.23
2024-03-15T00:27:20.189Z,3.27
2024-03-15T00:29:46.786Z,3.19
2024-03-15T00:32:13.342Z,3.21
2024-03-15T00:34:40.132Z,3.14
2024-03-15T00:37:07.431Z,3.20
2024-03-15T00:39:33.986Z,3.08
2024-03-15T00:42:00.506Z,3.10
2024-03-15T00:44:27.163Z,3.11
2024-03-15T00:46:53.676Z,3.14
2024-03-15T00:49:20.221Z,2.93
2024-03-15T00:51:47.021Z,2.93
2024-03-15T00:54:13.917Z,2.92
2024-03-15T00:56:40.658Z,2.88
2024-03-15T00:59:09.962Z,2.95
2024-03-15T01:01:38.954Z,2.98
2024-03-15T01:04:05.768Z,2.85
2024-03-15T01:06:32.364Z,2.98
2024-03-15T01:08:58.921Z,2.87
2024-03-15T01:11:25.436Z,2.85
2024-03-15T01:13:56.520Z,2.98
2024-03-15T01:16:23.024Z,2.84
2024-03-15T01:18:50.079Z,2.90
2024-03-15T01:21:16.729Z,2.89
2024-03-15T01:23:43.834Z,2.81
2024-03-15T01:26:10.277Z,2.82
2024-03-15T01:28:36.712Z,2.83
2024-03-15T01:31:03.384Z,2.90
2024-03-15T01:33:29.939Z,2.88
2024-03-15T01:35:56.500Z,2.77
2024-03-15T01:38:24.806Z,2.88
2024-03-15T01:40:51.298Z,2.78
2024-03-15T01:43:17.940Z,2.75
2024-03-15T01:45:44.845Z,2.66
2024-03-15T01:48:12.831Z,2.75
2024-03-15T01:50:40.358Z,2.73
2024-03-15T01:53:07.263Z,2.78
2024-03-15T01:55:33.764Z,2.65
2024-03-15T01:58:03.226Z,2.74
2024-03-15T02:00:29.802Z,2.67
2024-03-15T02:02:57.711Z,2.63
2024-03-15T02:05:24.370Z,2.64
2024-03-15T02:07:51.628Z,2.65
2024-03-15T02:10:18.247Z,2.57
2024-03-15T02:12:45.036Z,2.53
2024-03-15T02:15:11.888Z,2.46
2024-03-15T02:17:38.945Z,2.43
2024-03-15T02:20:07.871Z,2.35
2024-03-15T02:22:34.755Z,2.23
2024-03-15T02:25:01.337Z,2.24
2024-03-15T02:27:29.916Z,2.21
2024-03-15T02:29:56.863Z,2.20
2024-03-15T02:32:26.262Z,2.21
2024-03-15T02:34:53.256Z,2.06
2024-03-15T02:37:20.609Z,2.14
2024-03-15T02:39:47.618Z,2.10
2024-03-15T02:42:14.296Z,2.05
2024-03-15T02:44:41.126Z,1.96
2024-03-15T02:47:07.699Z,2.13
2024-03-15T02:49:34.465Z,2.13
2024-03-15T02:52:02.037Z,2.00
2024-03-15T02:54:29.777Z,2.08
2024-03-15T02:56:56.542Z,1.96
2024-03-15T02:59:25.142Z,1.91
2024-03-15T03:01:52.610Z,2.05
2024-03-15T03:04:19.555Z,1.90
2024-03-15T03:06:46.903Z,1.90
2024-03-15T03:09:22.068Z,1.87
2024-03-15T03:11:48.858Z,1.97
2024-03-15T03:14:15.407Z,1.87
2024-03-15T03:16:43.516Z,1.87
2024-03-15T03:19:10.902Z,1.95
2024-03-15T03:21:38.189Z,1.80
2024-03-15T03:24:05.041Z,1.83
2024-03-15T03:26:31.701Z,1.85
2024-03-15T03:28:58.237Z,1.87
2024-03-15T03:31:24.744Z,1.87
2024-03-15T03:33:51.310Z,1.85
2024-03-15T03:36:17.958Z,1.85
2024-03-15T03:38:45.638Z,1.96
2024-03-15T03:41:12.203Z,1.85
2024-03-15T03:43:38.698Z,1.92
2024-03-15T03:46:08.056Z,1.98
2024-03-15T03:48:34.847Z,1.94
2024-03-15T03:51:01.782Z,2.00
2024-03-15T03:53:28.461Z,1.96
2024-03-15T03:55:54.971Z,2.00
2024-03-15T03:58:24.386Z,1.97
2024-03-15T04:00:51.225Z,1.97
2024-03-15T04:03:18.373Z,1.93
2024-03-15T04:05:45.922Z,2.02
2024-03-15T04:08:13.486Z,2.05
2024-03-15T04:10:40.390Z,2.09
2024-03-15T04:13:08.138Z,2.16
2024-03-15T04:15:34.972Z,1.98
2024-03-15T04:18:04.536Z,2.01
2024-03-15T04:20:31.256Z,2.00
2024-03-15T04:22:58.365Z,2.06
2024-03-15T04:25:25.612Z,2.10
2024-03-15T04:27:55.024Z,2.10
2024-03-15T04:30:23.904Z,2.01
2024-03-15T04:32:51.147Z,1.98
2024-03-15T04:35:18.885Z,1.97
2024-03-15T04:37:46.208Z,2.06
2024-03-15T04:40:15.044Z,1.97
2024-03-15T04:42:42.292Z,1.95
2024-03-15T04:45:13.711Z,1.84
2024-03-15T04:47:43.567Z,1.87
2024-03-15T04:50:11.539Z,1.82
2024-03-15T04:52:38.618Z,1.89
2024-03-15T04:55:05.683Z,1.85
2024-03-15T04:57:32.307Z,1.79
2024-03-15T04:59:58.949Z,1.86
2024-03-15T05:02:25.506Z,1.78
2024-03-15T05:04:52.377Z,1.85
2024-03-15T05:07:19.133Z,1.83
2024-03-15T05:09:45.812Z,1.86
2024-03-15T05:12:14.026Z,1.80
2024-03-15T05:14:40.884Z,1.78
2024-03-15T05:17:07.806Z,1.83
2024-03-15T05:19:39.059Z,1.85
2024-03-15T05:22:06.851Z,1.96
2024-03-15T05:24:33.585Z,1.96
2024-03-15T05:27:00.350Z,1.82
2024-03-15T05:29:26.987Z,1.75
2024-03-15T05:31:53.503Z,1.64
2024-03-15T05:34:20.036Z,1.59
2024-03-15T05:36:46.675Z,1.56
2024-03-15T05:39:13.327Z,1.63
2024-03-15T05:41:42.997Z,1.68
2024-03-15T05:44:11.214Z,1.69
2024-03-15T05:46:38.112Z,1.68
2024-03-15T05:49:05.053Z,1.58
2024-03-15T05:51:33.802Z,1.63
2024-03-15T05:54:00.506Z,1.68
2024-03-15T05:56:27.214Z,1.83
2024-03-15T05:58:53.758Z,1.85
2024-03-15T06:01:20.406Z,1.80
2024-03-15T06:03:47.131Z,1.89
2024-03-15T06:06:13.879Z,1.86
2024-03-15T06:08:40.392Z,1.90
2024-03-15T06:11:06.987Z,1.94
2024-03-15T06:13:33.640Z,1.97
2024-03-15T06:16:00.213Z,2.00
2024-03-15T06:18:27.023Z,2.11
2024-03-15T06:20:54.690Z,2.14
2024-03-15T06:23:21.947Z,2.20
2024-03-15T06:25:48.848Z,2.24
2024-03-15T06:28:15.676Z,2.26
2024-03-15T06:30:46.878Z,2.29
2024-03-15T06:33:15.222Z,2.35
2024-03-15T06:35:44.297Z,2.43
2024-03-15T06:38:41.828Z,2.49
2024-03-15T06:41:12.443Z,2.49
2024-03-15T06:43:43.678Z,2.63
2024-03-15T06:46:25.208Z,2.81
2024-03-15T06:48:59.564Z,2.84
2024-03-15T06:51:46.784Z,3.04
2024-03-15T06:54:15.895Z,3.05
2024-03-15T06:56:43.307Z,3.16
2024-03-15T06:59:13.019Z,3.26
2024-03-15T07:01:40.003Z,3.37
2024-03-15T07:04:09.633Z,3.45
2024-03-15T07:06:36.605Z,3.54
2024-03-15T07:09:06.628Z,3.74
2024-03-15T07:11:36.272Z,3.90
2024-03-15T07:14:05.244Z,4.18
2024-03-15T07:16:32.907Z,4.39
2024-03-15T07:19:00.806Z,4.33
2024-03-15T07:21:27.509Z,4.51
2024-03-15T07:23:54.233Z,4.52
2024-03-15T07:26:20.828Z,4.57
2024-03-15T07:28:47.884Z,4.75
2024-03-15T07:31:14.543Z,4.88
2024-03-15T07:33:41.332Z,5.07
2024-03-15T07:36:09.798Z,5.37
2024-03-15T07:38:36.938Z,5.78
2024-03-15T07:41:03.711Z,5.94
2024-03-15T07:43:30.414Z,6.81
2024-03-15T07:45:57.519Z,6.66
2024-03-15T07:48:24.418Z,6.47
2024-03-15T07:50:50.999Z,6.79
2024-03-15T07:53:18.674Z,6.82
2024-03-15T07:55:45.196Z,7.96
2024-03-15T07:58:12.072Z,8.73
2024-03-15T08:00:40.522Z,8.18
2024-03-15T08:03:07.653Z,8.78
2024-03-15T08:05:34.839Z,9.36
2024-03-15T08:08:01.719Z,9.47
2024-03-15T08:10:28.527Z,11.01
2024-03-15T08:12:55.951Z,10.56
2024-03-15T08:15:22.750Z,10.86
2024-03-15T08:17:51.746Z,11.20
2024-03-15T08:20:18.508Z,11.10
2024-03-15T08:22:45.005Z,11.03
2024-03-15T08:25:11.717Z,11.06
2024-03-15T08:27:41.068Z,11.76
2024-03-15T08:30:09.275Z,12.03
2024-03-15T08:32:37.621Z,12.66
2024-03-15T08:35:05.023Z,13.50
2024-03-15T08:37:32.336Z,14.05
2024-03-15T08:39:58.943Z,13.26
2024-03-15T08:42:26.021Z,13.81
2024-03-15T08:44:52.692Z,13.81
2024-03-15T08:47:19.937Z,13.03
2024-03-15T08:49:49.839Z,12.31
2024-03-15T08:52:20.471Z,11.45
2024-03-15T08:54:47.090Z,10.79
2024-03-15T08:57:13.923Z,10.69
2024-03-15T08:59:41.672Z,10.30
2024-03-15T09:02:08.854Z,10.12
2024-03-15T09:04:36.865Z,9.73
2024-03-15T09:07:03.818Z,9.57
2024-03-15T09:09:33.913Z,9.66
2024-03-15T09:12:00.743Z,10.37
2024-03-15T09:14:28.724Z,10.09
2024-03-15T09:16:57.389Z,9.83
2024-03-15T09:19:24.195Z,9.97
2024-03-15T09:21:51.032Z,9.89
2024-03-15T09:24:19.232Z,9.56
2024-03-15T09:26:46.200Z,10.10
2024-03-15T09:29:12.724Z,10.38
2024-03-15T09:31:59.402Z,10.31
2024-03-15T09:34:29.400Z,10.35
2024-03-15T09:36:56.936Z,10.17
2024-03-15T09:39:30.421Z,10.14
2024-03-15T09:41:57.098Z,10.01
2024-03-15T09:44:23.650Z,9.50
2024-03-15T09:46:51.133Z,9.32
2024-03-15T09:49:18.835Z,9.17
2024-03-15T09:51:49.125Z,9.18
2024-03-15T09:54:15.977Z,9.26
2024-03-15T09:56:45.741Z,9.26
2024-03-15T09:59:18.626Z,9.42
2024-03-15T10:01:45.525Z,9.42
2024-03-15T10:04:12.438Z,9.50
2024-03-15T10:06:39.492Z,9.94
2024-03-15T10:09:06.637Z,9.69
2024-03-15T10:11:33.328Z,9.95
2024-03-15T10:14:01.392Z,10.08
2024-03-15T10:16:29.421Z,10.01
2024-03-15T10:18:56.326Z,9.82
2024-03-15T10:21:22.976Z,9.62
2024-03-15T10:23:54.884Z,9.58
2024-03-15T10:26:26.224Z,9.66
2024-03-15T10:28:53.372Z,9.93
2024-03-15T10:31:21.731Z,9.75
2024-03-15T10:33:48.284Z,9.98
2024-03-15T10:36:15.055Z,10.13
2024-03-15T10:38:41.715Z,10.04
2024-03-15T10:41:09.144Z,9.90
2024-03-15T10:43:36.351Z,9.87
2024-03-15T10:46:06.953Z,9.92
2024-03-15T10:48:34.149Z,9.86
2024-03-15T10:51:02.229Z,9.72
2024-03-15T10:53:29.179Z,9.59
2024-03-15T10:55:56.793Z,9.52
2024-03-15T10:58:23.750Z,9.70
2024-03-15T11:00:50.874Z,9.99
2024-03-15T11:03:27.426Z,10.17
2024-03-15T11:05:54.183Z,10.46
2024-03-15T11:08:22.348Z,10.76
2024-03-15T11:11:04.661Z,10.66
2024-03-15T11:13:37.848Z,10.03
2024-03-15T11:16:22.718Z,10.31
2024-03-15T11:18:49.443Z,10.39
2024-03-15T11:21:20.651Z,10.81
2024-03-15T11:23:48.177Z,10.70
2024-03-15T11:26:20.789Z,10.69
2024-03-15T11:28:58.785Z,10.02
2024-03-15T11:31:32.381Z,10.07
2024-03-15T11:34:01.093Z,10.09
2024-03-15T11:36:31.452Z,10.52
2024-03-15T11:38:58.251Z,10.21
2024-03-15T11:41:24.912Z,10.34
2024-03-15T11:43:55.233Z,10.09
2024-03-15T11:46:22.216Z,10.02
2024-03-15T11:48:48.957Z,10.18
2024-03-15T11:51:15.878Z,10.12
2024-03-15T11:53:42.568Z,10.49
2024-03-15T11:56:09.731Z,10.25
2024-03-15T11:58:43.402Z,10.35
2024-03-15T12:01:11.452Z,10.28
2024-03-15T12:03:39.161Z,10.42
2024-03-15T12:06:09.009Z,10.54
2024-03-15T12:08:36.071Z,10.31
2024-03-15T12:11:02.782Z,10.35
2024-03-15T12:13:32.730Z,10.19
2024-03-15T12:16:01.962Z,10.35
2024-03-15T12:18:29.869Z,10.16
2024-03-15T12:20:56.575Z,10.20
2024-03-15T12:23:25.117Z,10.24
2024-03-15T12:25:52.923Z,10.31
2024-03-15T12:28:22.488Z,10.42
2024-03-15T12:30:50.799Z,10.20
2024-03-15T12:33:17.615Z,10.10
2024-03-15T12:35:46.142Z,10.02
2024-03-15T12:38:15.640Z,10.08
2024-03-15T12:40:45.142Z,10.00
2024-03-15T12:43:12.453Z,9.81
2024-03-15T12:45:43.339Z,9.74
2024-03-15T12:48:12.227Z,9.82
2024-03-15T12:50:39.227Z,9.41
2024-03-15T12:53:10.454Z,9.73
2024-03-15T12:55:37.102Z,9.92
2024-03-15T12:58:03.942Z,10.11
2024-03-15T13:00:31.240Z,9.78
2024-03-15T13:02:58.693Z,10.10
2024-03-15T13:05:26.994Z,10.01
2024-03-15T13:07:53.714Z,10.09
2024-03-15T13:10:23.914Z,9.97
2024-03-15T13:12:56.144Z,10.12
2024-03-15T13:15:23.708Z,10.09
2024-03-15T13:17:53.166Z,10.36
2024-03-15T13:20:20.247Z,10.25
2024-03-15T13:22:48.987Z,10.06
2024-03-15T13:25:29.525Z,9.88
2024-03-15T13:28:02.257Z,10.03
2024-03-15T13:30:29.120Z,10.04
2024-03-15T13:32:59.480Z,10.03
2024-03-15T13:35:28.382Z,9.94
2024-03-15T13:37:55.034Z,10.03
2024-03-15T13:40:23.518Z,10.43
2024-03-15T13:42:52.534Z,10.37
2024-03-15T13:45:21.514Z,10.34
2024-03-15T13:47:48.284Z,10.54
2024-03-15T13:50:17.086Z,10.25
2024-03-15T13:52:45.155Z,10.14
2024-03-15T13:55:12.931Z,10.29
2024-03-15T13:57:41.035Z,10.20
2024-03-15T14:00:31.238Z,10.12
2024-03-15T14:03:08.476Z,10.08
2024-03-15T14:05:39.397Z,10.23
2024-03-15T14:08:10.399Z,10.08
2024-03-15T14:10:38.988Z,10.18
2024-03-15T14:13:10.237Z,10.21
2024-03-15T14:15:41.300Z,10.20
2024-03-15T14:18:13.285Z,10.03
2024-03-15T14:20:42.483Z,10.05
2024-03-15T14:23:09.071Z,10.07
2024-03-15T14:25:35.820Z,9.76
2024-03-15T14:28:11.355Z,10.05
2024-03-15T14:30:38.813Z,9.60
2024-03-15T14:33:09.724Z,9.45
2024-03-15T14:35:37.051Z,9.80
2024-03-15T14:38:05.650Z,9.82
2024-03-15T14:40:35.921Z,9.84
2024-03-15T14:43:03.704Z,9.52
2024-03-15T14:45:32.719Z,9.53
2024-03-15T14:48:06.284Z,9.51
2024-03-15T14:50:38.044Z,9.36
2024-03-15T14:53:08.430Z,9.20
2024-03-15T14:55:36.253Z,9.08
2024-03-15T14:58:05.078Z,9.15
2024-03-15T15:00:33.236Z,9.06
2024-03-15T15:03:00.455Z,9.10
2024-03-15T15:05:27.126Z,9.07
2024-03-15T15:07:59.457Z,8.87
2024-03-15T15:10:26.586Z,8.83
2024-03-15T15:12:54.395Z,8.84
2024-03-15T15:15:24.131Z,8.77
2024-03-15T15:17:53.006Z,8.69
2024-03-15T15:20:19.941Z,8.70
2024-03-15T15:22:50.892Z,8.73
2024-03-15T15:25:21.444Z,8.69
2024-03-15T15:27:49.986Z,8.69
2024-03-15T15:30:19.557Z,8.63
2024-03-15T15:32:50.719Z,8.43
2024-03-15T15:35:17.954Z,8.35
2024-03-15T15:37:45.320Z,8.17
2024-03-15T15:40:26.417Z,8.33
2024-03-15T15:42:56.642Z,8.32
2024-03-15T15:45:33.970Z,8.30
2024-03-15T15:48:01.798Z,8.15
2024-03-15T15:50:29.407Z,8.22
2024-03-15T15:52:55.918Z,8.01
2024-03-15T15:55:24.189Z,7.99
2024-03-15T15:57:51.552Z,7.96
2024-03-15T16:00:20.846Z,7.98
2024-03-15T16:02:48.754Z,8.00
2024-03-15T16:05:15.595Z,7.86
2024-03-15T16:07:45.746Z,7.85
2024-03-15T16:10:13.005Z,7.84
2024-03-15T16:12:40.144Z,7.72
2024-03-15T16:15:08.085Z,7.63
2024-03-15T16:17:35.464Z,7.58
2024-03-15T16:20:02.120Z,7.61
2024-03-15T16:22:29.150Z,7.70
2024-03-15T16:24:56.058Z,7.81
2024-03-15T16:27:22.944Z,7.77
2024-03-15T16:29:50.325Z,7.61
2024-03-15T16:32:16.953Z,7.44
2024-03-15T16:34:43.874Z,7.39
2024-03-15T16:37:11.651Z,7.37
2024-03-15T16:39:38.534Z,7.51
2024-03-15T16:42:05.505Z,7.42
2024-03-15T16:44:32.061Z,7.44
2024-03-15T16:46:58.611Z,7.30
2024-03-15T16:49:25.590Z,7.37
2024-03-15T16:51:52.803Z,7.29
2024-03-15T16:54:19.870Z,7.34
2024-03-15T16:56:46.644Z,7.27
2024-03-15T16:59:13.444Z,7.26
2024-03-15T17:01:40.708Z,7.25
2024-03-15T17:04:10.622Z,7.28
2024-03-15T17:06:38.371Z,7.30
2024-03-15T17:09:05.774Z,7.40
2024-03-15T17:11:34.383Z,7.39
2024-03-15T17:14:02.136Z,7.45
2024-03-15T17:16:30.442Z,7.27
2024-03-15T17:18:58.238Z,7.25
2024-03-15T17:21:25.505Z,7.33
2024-03-15T17:23:52.098Z,7.30
2024-03-15T17:26:18.681Z,7.36
2024-03-15T17:28:45.348Z,7.23
2024-03-15T17:31:11.912Z,7.22
2024-03-15T17:33:38.526Z,7.21
2024-03-15T17:36:06.954Z,7.17
2024-03-15T17:38:33.745Z,7.22
2024-03-15T17:41:00.457Z,7.11
2024-03-15T17:43:27.752Z,6.96
2024-03-15T17:45:54.305Z,7.20
2024-03-15T17:48:21.266Z,7.05
2024-03-15T17:50:47.822Z,7.14
2024-03-15T17:53:14.413Z,7.13
2024-03-15T17:55:41.295Z,7.19
2024-03-15T17:58:08.154Z,7.16
2024-03-15T18:00:35.572Z,7.08
2024-03-15T18:03:05.127Z,7.11
2024-03-15T18:05:35.402Z,7.15
2024-03-15T18:08:01.981Z,6.99
2024-03-15T18:10:28.640Z,7.10
2024-03-15T18:12:55.711Z,7.10
2024-03-15T18:15:22.666Z,7.02
2024-03-15T18:17:49.454Z,7.04
2024-03-15T18:20:16.018Z,7.01
2024-03-15T18:22:42.724Z,7.05
2024-03-15T18:25:11.387Z,7.01
2024-03-15T18:27:38.071Z,6.97
2024-03-15T18:30:05.119Z,6.94
2024-03-15T18:32:33.218Z,6.93
2024-03-15T18:34:59.962Z,6.87
2024-03-15T18:37:26.403Z,6.91
2024-03-15T18:39:53.143Z,6.82
2024-03-15T18:42:20.194Z,6.88
2024-03-15T18:44:46.799Z,6.85
2024-03-15T18:47:13.381Z,6.84
2024-03-15T18:49:39.915Z,6.88
2024-03-15T18:52:06.594Z,6.84
2024-03-15T18:54:33.212Z,6.80
2024-03-15T18:56:59.788Z,6.84
2024-03-15T18:59:31.099Z,6.74
2024-03-15T19:01:58.094Z,6.86
2024-03-15T19:04:24.784Z,6.71
2024-03-15T19:06:51.385Z,6.73
2024-03-15T19:09:17.980Z,6.82
2024-03-15T19:11:45.015Z,6.83
2024-03-15T19:14:11.540Z,6.74
2024-03-15T19:16:39.032Z,6.64
2024-03-15T19:19:06.006Z,6.73
2024-03-15T19:21:32.931Z,6.73
2024-03-15T19:23:59.573Z,6.81
2024-03-15T19:26:26.086Z,6.71
2024-03-15T19:28:52.566Z,6.70
2024-03-15T19:31:19.273Z,6.67
2024-03-15T19:33:45.884Z,6.75
2024-03-15T19:36:13.040Z,6.75
2024-03-15T19:38:39.716Z,6.72
2024-03-15T19:41:11.846Z,6.69
2024-03-15T19:43:40.787Z,6.72
2024-03-15T19:46:07.742Z,6.74
2024-03-15T19:48:34.650Z,6.69
2024-03-15T19:51:01.863Z,6.77
2024-03-15T19:53:31.289Z,6.71
2024-03-15T19:55:59.687Z,6.72
2024-03-15T19:58:26.982Z,6.71
2024-03-15T20:00:54.569Z,6.62
2024-03-15T20:03:21.192Z,6.66
2024-03-15T20:05:47.819Z,6.49
2024-03-15T20:08:14.649Z,6.45
2024-03-15T20:10:41.636Z,6.58
2024-03-15T20:13:08.204Z,6.63
2024-03-15T20:15:34.947Z,6.64
2024-03-15T20:18:01.941Z,6.49
2024-03-15T20:20:28.663Z,6.44
2024-03-15T20:22:55.253Z,6.64
2024-03-15T20:25:21.945Z,6.62
2024-03-15T20:27:48.613Z,6.66
2024-03-15T20:30:15.065Z,6.54
2024-03-15T20:32:41.673Z,6.55
2024-03-15T20:35:08.332Z,6.49
2024-03-15T20:37:34.876Z,6.58
2024-03-15T20:40:01.572Z,6.55
2024-03-15T20:42:28.314Z,6.47
2024-03-15T20:44:54.761Z,6.43
2024-03-15T20:47:21.343Z,6.49
2024-03-15T20:49:47.896Z,6.41
2024-03-15T20:52:14.517Z,6.46
2024-03-15T20:54:41.072Z,6.44
2024-03-15T20:57:07.704Z,6.58
2024-03-15T20:59:34.177Z,6.59
2024-03-15T21:02:09.843Z,6.57
2024-03-15T21:04:37.520Z,6.40
2024-03-15T21:07:04.180Z,6.49
2024-03-15T21:09:30.940Z,6.50
2024-03-15T21:11:57.573Z,6.54
2024-03-15T21:14:24.060Z,6.36
2024-03-15T21:16:52.162Z,6.47
2024-03-15T21:19:18.680Z,6.48
2024-03-15T21:21:45.320Z,6.50
2024-03-15T21:24:11.890Z,6.47
2024-03-15T21:26:38.421Z,6.31
2024-03-15T21:29:04.957Z,6.36
2024-03-15T21:31:31.506Z,6.16
2024-03-15T21:33:59.852Z,6.28
2024-03-15T21:36:26.675Z,6.22
2024-03-15T21:38:53.578Z,6.30
2024-03-15T21:41:20.109Z,6.31
2024-03-15T21:43:46.673Z,6.29
2024-03-15T21:46:21.198Z,6.21
2024-03-15T21:48:48.612Z,6.19
2024-03-15T21:51:15.154Z,6.04
2024-03-15T21:53:43.545Z,6.13
2024-03-15T21:56:10.132Z,6.21
2024-03-15T21:58:36.668Z,6.18
2024-03-15T22:01:04.541Z,6.20
2024-03-15T22:03:33.145Z,6.25
2024-03-15T22:05:59.929Z,6.20
2024-03-15T22:08:26.372Z,6.12
2024-03-15T22:10:56.722Z,6.09
2024-03-15T22:13:23.964Z,6.14
2024-03-15T22:15:55.326Z,6.07
2024-03-15T22:18:21.998Z,6.14
2024-03-15T22:20:49.367Z,6.06
2024-03-15T22:23:16.537Z,6.12
2024-03-15T22:25:43.653Z,6.08
2024-03-15T22:28:10.323Z,6.12
2024-03-15T22:30:36.849Z,6.06
2024-03-15T22:33:03.543Z,6.12
2024-03-15T22:35:30.221Z,6.03
2024-03-15T22:37:56.744Z,6.07
2024-03-15T22:40:24.084Z,5.95
2024-03-15T22:42:50.756Z,6.03
2024-03-15T22:45:17.346Z,6.05
2024-03-15T22:47:43.937Z,6.19
2024-03-15T22:50:12.277Z,5.98
2024-03-15T22:52:39.774Z,6.00
2024-03-15T22:55:06.814Z,5.90
2024-03-15T22:57:33.540Z,5.95
2024-03-15T23:00:00.098Z,6.06
2024-03-15T23:02:27.975Z,6.01
2024-03-15T23:04:54.558Z,5.90
2024-03-15T23:07:23.771Z,5.91
2024-03-15T23:09:50.666Z,5.91
2024-03-15T23:12:18.758Z,5.85
2024-03-15T23:14:47.254Z,6.01
2024-03-15T23:17:13.908Z,5.92
2024-03-15T23:19:41.686Z,5.98
2024-03-15T23:22:08.291Z,5.83
2024-03-15T23:24:35.190Z,5.83
2024-03-15T23:27:02.341Z,5.79
2024-03-15T23:29:29.099Z,5.83
2024-03-15T23:31:55.675Z,5.80
2024-03-15T23:34:24.268Z,5.84
2024-03-15T23:36:50.842Z,5.73
2024-03-15T23:39:17.343Z,5.81
2024-03-15T23:41:43.856Z,5.63
2024-03-15T23:44:10.915Z,5.70
2024-03-15T23:46:39.146Z,5.49
2024-03-15T23:49:07.054Z,5.46
2024-03-15T23:51:33.982Z,5.57
2024-03-15T23:54:01.577Z,5.37
2024-03-15T23:56:28.166Z,5.26
2024-03-15T23:58:54.730Z,5.37
